Aérodrome :
LOGIN :

S'inscrire | Disclaimer

   EN    FR    IT 

 










Légende :    VFR   VFR Marginal   IFR   IFR Intensif   IFR Très Intensif
Visi : 
Plafond : 
>= 8 km
>= 3000ft
5 à 8 km
1000 à 3000 ft
1500m à 5 km
500 à 1000 ft
800 à 1500m
200 à 500 ft
< 800m
< 200 ft
Symboles :   Orages  Brouillard  Fortes neiges  Fortes précipitations  Vent > 20 kt
SIGMETs :   Divers  Orages  Givrage  Turbulence  Onde Orograph.  Cendres Volcan.







- Altitude de l'aérodrome : 191 ft
- Code IATA : RNB


ESDF - Ronneby

DERNIER METAR :
  • 230650Z 26011KT 9999 -RA BKN008 BKN012 09/09 Q0996

METARs EXPIRÉS :
  • 230620Z 25011KT 9999 -RA BKN008 BKN012 09/08 Q0997
  • 230550Z 25011KT 210V270 9999 -RA BKN008 09/08 Q0998
  • 230520Z 24013KT 210V270 9999 -RA BKN008 08/08 Q0998
  • 230450Z 24012KT 220V280 9999 -RA BKN008 08/08 Q1000
  • 230423Z 24011KT 9999 -RA BKN008 08/08 Q1001

TAF TAF ESDF
Valide du 23 à 05h jusqu'au 23 à 15h UTC


230435Z 2305/2315 23011G25KT 5000 RA BKN006
BECMG 2305/2308 9999 NSW BKN020
TEMPO 2308/2313 29015G30KT 6000 SHRA BKN012 BKN030CB RMK MIL
Pas de NOTAMs connus pour ce terrain.



MET'MAP, la Météo Aéronautique d'un coup d'oeil ! - Copyright ORBIFLY Décembre 2007 - Disclaimer

ORBIFLY MET'MAP TEAM :

Programmation & Développement : Alexandra Zaïnal
Conception & Développement : Baudouin d'Aumeries
Co-Programmation & Développement : Marc-Olivier Méhu
Soutien technique & logistique : Manuel Goepfert

Contact : metmap@orbifly.com




SOURCES & CREDITS :

   NOAA